sensor_id;sensor_type;location;lat;lon;timestamp;P1;durP1;ratioP1;P2;durP2;ratioP2
28009;SDS011;15334;49.494;8.410;2024-03-07T05:52:33;40.08;;;14.30;;
28009;SDS011;15334;49.494;8.410;2024-03-07T05:55:01;41.75;;;15.80;;
28009;SDS011;15334;49.494;8.410;2024-03-07T05:57:29;37.83;;;14.95;;
28009;SDS011;15334;49.494;8.410;2024-03-07T05:59:56;42.15;;;17.25;;
28009;SDS011;15334;49.494;8.410;2024-03-07T06:02:25;51.70;;;17.67;;
28009;SDS011;15334;49.494;8.410;2024-03-07T06:04:53;48.58;;;17.75;;
28009;SDS011;15334;49.494;8.410;2024-03-07T06:07:21;45.58;;;18.98;;
28009;SDS011;15334;49.494;8.410;2024-03-07T06:09:50;49.85;;;16.60;;
28009;SDS011;15334;49.494;8.410;2024-03-07T16:59:32;21.45;;;6.97;;
28009;SDS011;15334;49.494;8.410;2024-03-07T17:02:00;17.00;;;6.40;;
28009;SDS011;15334;49.494;8.410;2024-03-07T17:04:36;16.08;;;6.28;;
28009;SDS011;15334;49.494;8.410;2024-03-07T17:07:09;21.45;;;8.52;;
28009;SDS011;15334;49.494;8.410;2024-03-07T17:09:38;12.82;;;7.05;;
28009;SDS011;15334;49.494;8.410;2024-03-07T17:12:07;14.07;;;6.68;;
28009;SDS011;15334;49.494;8.410;2024-03-07T17:14:37;15.98;;;8.32;;
28009;SDS011;15334;49.494;8.410;2024-03-07T17:17:10;12.73;;;7.40;;
28009;SDS011;15334;49.494;8.410;2024-03-07T17:19:41;13.98;;;6.28;;
28009;SDS011;15334;49.494;8.410;2024-03-07T17:22:09;14.57;;;10.95;;
28009;SDS011;15334;49.494;8.410;2024-03-07T17:24:37;14.45;;;6.70;;
28009;SDS011;15334;49.494;8.410;2024-03-07T17:27:11;13.68;;;6.53;;
28009;SDS011;15334;49.494;8.410;2024-03-07T17:29:48;13.13;;;6.65;;
28009;SDS011;15334;49.494;8.410;2024-03-07T17:32:18;14.88;;;6.60;;
28009;SDS011;15334;49.494;8.410;2024-03-07T17:34:46;15.55;;;6.72;;
28009;SDS011;15334;49.494;8.410;2024-03-07T17:37:14;16.13;;;6.13;;
28009;SDS011;15334;49.494;8.410;2024-03-07T17:39:42;14.60;;;6.25;;
28009;SDS011;15334;49.494;8.410;2024-03-07T17:42:11;14.85;;;6.53;;
28009;SDS011;15334;49.494;8.410;2024-03-07T17:44:39;13.27;;;5.97;;
28009;SDS011;15334;49.494;8.410;2024-03-07T17:47:08;18.08;;;6.25;;
28009;SDS011;15334;49.494;8.410;2024-03-07T17:49:37;13.50;;;5.70;;
28009;SDS011;15334;49.494;8.410;2024-03-07T17:52:06;14.20;;;6.40;;
28009;SDS011;15334;49.494;8.410;2024-03-07T17:54:36;14.52;;;6.80;;
28009;SDS011;15334;49.494;8.410;2024-03-07T17:57:04;15.65;;;6.35;;
28009;SDS011;15334;49.494;8.410;2024-03-07T17:59:33;19.85;;;7.05;;
28009;SDS011;15334;49.494;8.410;2024-03-07T18:02:00;16.08;;;6.78;;
28009;SDS011;15334;49.494;8.410;2024-03-07T18:04:31;12.48;;;6.25;;
28009;SDS011;15334;49.494;8.410;2024-03-07T18:06:59;16.63;;;6.35;;
28009;SDS011;15334;49.494;8.410;2024-03-07T18:09:27;14.27;;;6.25;;
28009;SDS011;15334;49.494;8.410;2024-03-07T18:11:55;16.85;;;6.82;;
28009;SDS011;15334;49.494;8.410;2024-03-07T18:14:25;13.85;;;6.85;;
28009;SDS011;15334;49.494;8.410;2024-03-07T18:16:58;17.30;;;6.25;;
28009;SDS011;15334;49.494;8.410;2024-03-07T18:19:32;16.60;;;6.60;;
28009;SDS011;15334;49.494;8.410;2024-03-07T18:22:01;15.10;;;6.53;;
28009;SDS011;15334;49.494;8.410;2024-03-07T18:24:29;14.02;;;7.05;;
28009;SDS011;15334;49.494;8.410;2024-03-07T18:26:57;14.02;;;6.18;;
28009;SDS011;15334;49.494;8.410;2024-03-07T18:29:30;16.33;;;6.32;;
28009;SDS011;15334;49.494;8.410;2024-03-07T18:32:01;14.40;;;6.20;;
28009;SDS011;15334;49.494;8.410;2024-03-07T18:34:29;18.23;;;6.57;;
28009;SDS011;15334;49.494;8.410;2024-03-07T18:36:59;15.85;;;6.03;;
28009;SDS011;15334;49.494;8.410;2024-03-07T18:39:31;19.20;;;7.53;;
28009;SDS011;15334;49.494;8.410;2024-03-07T18:41:59;13.45;;;5.93;;
28009;SDS011;15334;49.494;8.410;2024-03-07T18:44:27;16.00;;;7.55;;
28009;SDS011;15334;49.494;8.410;2024-03-07T18:47:00;18.40;;;6.80;;
28009;SDS011;15334;49.494;8.410;2024-03-07T18:49:35;18.00;;;6.18;;
28009;SDS011;15334;49.494;8.410;2024-03-07T18:52:04;15.93;;;6.45;;
28009;SDS011;15334;49.494;8.410;2024-03-07T18:54:33;16.60;;;6.15;;
28009;SDS011;15334;49.494;8.410;2024-03-07T18:57:00;16.00;;;6.80;;
28009;SDS011;15334;49.494;8.410;2024-03-07T18:59:28;14.77;;;6.10;;
28009;SDS011;15334;49.494;8.410;2024-03-07T19:02:03;13.00;;;5.60;;
28009;SDS011;15334;49.494;8.410;2024-03-07T19:04:40;15.73;;;6.47;;
28009;SDS011;15334;49.494;8.410;2024-03-07T19:07:10;17.05;;;6.18;;
28009;SDS011;15334;49.494;8.410;2024-03-07T19:09:38;17.05;;;6.35;;
28009;SDS011;15334;49.494;8.410;2024-03-07T19:12:06;12.68;;;6.03;;
28009;SDS011;15334;49.494;8.410;2024-03-07T19:14:36;18.90;;;6.50;;
28009;SDS011;15334;49.494;8.410;2024-03-07T19:17:04;15.55;;;5.40;;
28009;SDS011;15334;49.494;8.410;2024-03-07T19:19:34;16.23;;;6.45;;
28009;SDS011;15334;49.494;8.410;2024-03-07T19:22:03;11.88;;;5.50;;
28009;SDS011;15334;49.494;8.410;2024-03-07T19:24:31;13.95;;;5.93;;
28009;SDS011;15334;49.494;8.410;2024-03-07T19:26:59;11.90;;;5.75;;
28009;SDS011;15334;49.494;8.410;2024-03-07T19:29:27;13.57;;;6.82;;
28009;SDS011;15334;49.494;8.410;2024-03-07T19:31:57;15.40;;;5.75;;
28009;SDS011;15334;49.494;8.410;2024-03-07T19:34:24;16.45;;;6.68;;
28009;SDS011;15334;49.494;8.410;2024-03-07T19:36:52;20.42;;;6.80;;
28009;SDS011;15334;49.494;8.410;2024-03-07T19:39:22;12.60;;;6.35;;
28009;SDS011;15334;49.494;8.410;2024-03-07T19:41:49;13.55;;;5.85;;
28009;SDS011;15334;49.494;8.410;2024-03-07T19:44:30;14.25;;;6.68;;
28009;SDS011;15334;49.494;8.410;2024-03-07T19:46:59;17.75;;;6.75;;
28009;SDS011;15334;49.494;8.410;2024-03-07T19:49:27;11.10;;;5.03;;
28009;SDS011;15334;49.494;8.410;2024-03-07T19:51:55;14.55;;;6.55;;
28009;SDS011;15334;49.494;8.410;2024-03-07T19:54:24;12.45;;;6.32;;
28009;SDS011;15334;49.494;8.410;2024-03-07T19:56:52;17.88;;;6.55;;
28009;SDS011;15334;49.494;8.410;2024-03-07T19:59:21;12.85;;;6.15;;
28009;SDS011;15334;49.494;8.410;2024-03-07T20:01:51;18.25;;;5.72;;
28009;SDS011;15334;49.494;8.410;2024-03-07T20:04:19;14.30;;;6.18;;
28009;SDS011;15334;49.494;8.410;2024-03-07T20:06:50;13.82;;;5.72;;
28009;SDS011;15334;49.494;8.410;2024-03-07T20:09:18;12.63;;;5.88;;
28009;SDS011;15334;49.494;8.410;2024-03-07T20:11:48;14.93;;;6.03;;
28009;SDS011;15334;49.494;8.410;2024-03-07T20:14:18;15.18;;;5.35;;
28009;SDS011;15334;49.494;8.410;2024-03-07T20:16:46;16.58;;;6.60;;
28009;SDS011;15334;49.494;8.410;2024-03-07T20:19:14;15.40;;;6.43;;
28009;SDS011;15334;49.494;8.410;2024-03-07T20:21:42;18.05;;;6.32;;
28009;SDS011;15334;49.494;8.410;2024-03-07T20:24:09;21.38;;;7.18;;
28009;SDS011;15334;49.494;8.410;2024-03-07T20:26:37;16.58;;;6.55;;
28009;SDS011;15334;49.494;8.410;2024-03-07T20:29:07;13.32;;;6.63;;
28009;SDS011;15334;49.494;8.410;2024-03-07T20:31:35;16.00;;;6.45;;
28009;SDS011;15334;49.494;8.410;2024-03-07T20:34:03;21.15;;;6.80;;
28009;SDS011;15334;49.494;8.410;2024-03-07T20:36:32;13.25;;;6.20;;
28009;SDS011;15334;49.494;8.410;2024-03-07T20:39:00;27.63;;;7.68;;
28009;SDS011;15334;49.494;8.410;2024-03-07T20:41:35;17.58;;;7.03;;
28009;SDS011;15334;49.494;8.410;2024-03-07T20:44:03;13.52;;;7.47;;
28009;SDS011;15334;49.494;8.410;2024-03-07T20:46:32;17.88;;;7.85;;
28009;SDS011;15334;49.494;8.410;2024-03-07T20:48:59;15.02;;;6.60;;
28009;SDS011;15334;49.494;8.410;2024-03-07T20:51:27;12.90;;;5.85;;
28009;SDS011;15334;49.494;8.410;2024-03-07T20:53:59;14.98;;;7.00;;
28009;SDS011;15334;49.494;8.410;2024-03-07T20:56:27;13.48;;;6.32;;
28009;SDS011;15334;49.494;8.410;2024-03-07T20:58:55;15.90;;;6.82;;
28009;SDS011;15334;49.494;8.410;2024-03-07T21:01:22;14.68;;;6.28;;
28009;SDS011;15334;49.494;8.410;2024-03-07T21:03:52;17.85;;;6.88;;
28009;SDS011;15334;49.494;8.410;2024-03-07T21:06:25;18.15;;;7.20;;
28009;SDS011;15334;49.494;8.410;2024-03-07T21:08:53;15.85;;;6.82;;
28009;SDS011;15334;49.494;8.410;2024-03-07T21:11:24;21.30;;;7.20;;
28009;SDS011;15334;49.494;8.410;2024-03-07T21:13:54;19.30;;;7.15;;
28009;SDS011;15334;49.494;8.410;2024-03-07T21:16:23;17.27;;;7.70;;
28009;SDS011;15334;49.494;8.410;2024-03-07T21:18:54;14.88;;;6.95;;
28009;SDS011;15334;49.494;8.410;2024-03-07T21:21:21;19.40;;;7.35;;
28009;SDS011;15334;49.494;8.410;2024-03-07T21:23:50;18.83;;;6.88;;
28009;SDS011;15334;49.494;8.410;2024-03-07T21:26:18;18.23;;;8.02;;
28009;SDS011;15334;49.494;8.410;2024-03-07T21:28:46;18.23;;;8.00;;
28009;SDS011;15334;49.494;8.410;2024-03-07T21:31:14;17.63;;;8.00;;
28009;SDS011;15334;49.494;8.410;2024-03-07T21:33:45;18.58;;;8.07;;
28009;SDS011;15334;49.494;8.410;2024-03-07T21:36:14;16.50;;;7.28;;
28009;SDS011;15334;49.494;8.410;2024-03-07T21:38:44;18.33;;;7.67;;
